createdAt,value
2023-04-17T00:02:10.816Z,100.00
2023-04-17T00:04:38.375Z,100.00
2023-04-17T00:07:06.078Z,100.00
2023-04-17T00:09:33.096Z,100.00
2023-04-17T00:11:59.483Z,100.00
2023-04-17T00:14:29.058Z,100.00
2023-04-17T00:16:56.053Z,100.00
2023-04-17T00:19:26.621Z,100.00
2023-04-17T00:21:53.015Z,100.00
2023-04-17T00:24:21.415Z,100.00
2023-04-17T00:26:47.778Z,100.00
2023-04-17T00:29:15.954Z,100.00
2023-04-17T00:31:42.795Z,100.00
2023-04-17T00:34:09.158Z,100.00
2023-04-17T00:36:35.705Z,100.00
2023-04-17T00:39:03.124Z,100.00
2023-04-17T00:41:29.548Z,100.00
2023-04-17T00:43:56.961Z,100.00
2023-04-17T00:46:23.462Z,100.00
2023-04-17T00:48:50.143Z,100.00
2023-04-17T00:51:16.877Z,100.00
2023-04-17T00:53:43.640Z,100.00
2023-04-17T00:56:10.827Z,100.00
2023-04-17T00:58:37.657Z,100.00
2023-04-17T01:01:04.953Z,100.00
2023-04-17T01:03:33.077Z,100.00
2023-04-17T01:05:59.730Z,100.00
2023-04-17T01:08:26.154Z,100.00
2023-04-17T01:10:52.597Z,100.00
2023-04-17T01:13:19.054Z,100.00
2023-04-17T01:15:47.012Z,100.00
2023-04-17T01:18:16.580Z,100.00
2023-04-17T01:20:43.131Z,100.00
2023-04-17T01:23:16.415Z,100.00
2023-04-17T01:25:42.840Z,100.00
2023-04-17T01:28:09.242Z,100.00
2023-04-17T01:30:35.684Z,100.00
2023-04-17T01:33:06.310Z,100.00
2023-04-17T01:35:32.828Z,100.00
2023-04-17T01:37:59.291Z,100.00
2023-04-17T01:40:25.684Z,100.00
2023-04-17T01:42:52.075Z,100.00
2023-04-17T01:45:18.542Z,100.00
2023-04-17T01:47:44.972Z,100.00
2023-04-17T01:50:12.750Z,100.00
2023-04-17T01:52:39.984Z,100.00
2023-04-17T01:55:07.734Z,100.00
2023-04-17T01:57:34.271Z,100.00
2023-04-17T02:00:00.750Z,100.00
2023-04-17T02:02:27.686Z,100.00
2023-04-17T02:04:54.232Z,100.00
2023-04-17T02:07:20.663Z,100.00
2023-04-17T02:09:47.109Z,100.00
2023-04-17T02:12:13.543Z,100.00
2023-04-17T02:14:39.938Z,100.00
2023-04-17T02:17:06.592Z,100.00
2023-04-17T02:19:33.098Z,100.00
2023-04-17T02:21:59.504Z,100.00
2023-04-17T02:24:26.072Z,100.00
2023-04-17T02:26:52.443Z,100.00
2023-04-17T02:29:18.883Z,100.00
2023-04-17T02:31:45.362Z,100.00
2023-04-17T02:34:11.844Z,100.00
2023-04-17T02:36:38.289Z,100.00
2023-04-17T02:39:06.098Z,100.00
2023-04-17T02:41:33.202Z,100.00
2023-04-17T02:44:00.710Z,100.00
2023-04-17T02:46:27.295Z,100.00
2023-04-17T02:48:53.769Z,100.00
2023-04-17T02:51:20.234Z,100.00
2023-04-17T02:53:46.929Z,100.00
2023-04-17T02:56:13.316Z,100.00
2023-04-17T02:58:39.783Z,100.00
2023-04-17T03:01:06.415Z,100.00
2023-04-17T03:03:41.370Z,100.00
2023-04-17T03:06:11.129Z,100.00
2023-04-17T03:08:38.632Z,100.00
2023-04-17T03:11:06.197Z,100.00
2023-04-17T03:13:38.495Z,100.00
2023-04-17T03:16:05.325Z,100.00
2023-04-17T03:18:32.815Z,100.00
2023-04-17T03:20:59.235Z,100.00
2023-04-17T03:23:26.589Z,100.00
2023-04-17T03:25:55.923Z,100.00
2023-04-17T03:28:23.872Z,100.00
2023-04-17T03:30:51.253Z,100.00
2023-04-17T03:33:17.793Z,100.00
2023-04-17T03:35:46.173Z,100.00
2023-04-17T03:38:12.612Z,100.00
2023-04-17T03:40:39.016Z,100.00
2023-04-17T03:43:05.432Z,100.00
2023-04-17T03:45:31.823Z,100.00
2023-04-17T03:47:58.262Z,100.00
2023-04-17T03:50:24.753Z,100.00
2023-04-17T03:52:51.429Z,100.00
2023-04-17T03:55:17.906Z,100.00
2023-04-17T03:57:44.943Z,100.00
2023-04-17T04:00:12.265Z,100.00
2023-04-17T04:02:38.906Z,100.00
2023-04-17T04:05:05.754Z,100.00
2023-04-17T04:07:39.309Z,100.00
2023-04-17T04:10:06.123Z,100.00
2023-04-17T04:12:32.530Z,100.00
2023-04-17T04:15:02.257Z,100.00
2023-04-17T04:17:29.281Z,100.00
2023-04-17T04:19:55.852Z,100.00
2023-04-17T04:22:22.416Z,100.00
2023-04-17T04:24:55.109Z,100.00
2023-04-17T04:27:22.840Z,100.00
2023-04-17T04:29:49.649Z,100.00
2023-04-17T04:32:16.890Z,100.00
2023-04-17T04:34:44.559Z,100.00
2023-04-17T04:37:15.365Z,100.00
2023-04-17T04:39:54.047Z,100.00
2023-04-17T04:42:22.492Z,100.00
2023-04-17T04:44:49.162Z,100.00
2023-04-17T04:47:15.660Z,100.00
2023-04-17T04:49:42.021Z,100.00
2023-04-17T04:52:08.468Z,100.00
2023-04-17T04:54:34.852Z,100.00
2023-04-17T04:57:01.470Z,100.00
2023-04-17T04:59:27.991Z,100.00
2023-04-17T05:01:54.608Z,100.00
2023-04-17T05:04:21.082Z,100.00
2023-04-17T05:06:53.882Z,100.00
2023-04-17T05:09:20.463Z,100.00
2023-04-17T05:11:46.853Z,100.00
2023-04-17T05:14:13.280Z,100.00
2023-04-17T05:16:40.511Z,100.00
2023-04-17T05:19:07.027Z,100.00
2023-04-17T05:21:33.912Z,100.00
2023-04-17T05:24:01.265Z,100.00
2023-04-17T05:26:27.659Z,100.00
2023-04-17T05:28:54.009Z,100.00
2023-04-17T05:31:20.841Z,100.00
2023-04-17T05:33:47.345Z,100.00
2023-04-17T05:36:13.906Z,100.00
2023-04-17T05:38:40.324Z,100.00
2023-04-17T05:41:09.480Z,100.00
2023-04-17T05:43:35.985Z,100.00
2023-04-17T05:46:02.773Z,100.00
2023-04-17T05:48:29.431Z,100.00
2023-04-17T05:50:58.777Z,100.00
2023-04-17T05:53:25.161Z,100.00
2023-04-17T05:55:51.599Z,100.00
2023-04-17T05:58:23.654Z,100.00
2023-04-17T06:00:51.779Z,100.00
2023-04-17T06:03:19.175Z,100.00
2023-04-17T06:05:47.238Z,100.00
2023-04-17T06:08:14.973Z,100.00
2023-04-17T06:10:41.384Z,100.00
2023-04-17T06:13:07.784Z,100.00
2023-04-17T06:15:34.274Z,100.00
2023-04-17T06:18:01.719Z,100.00
2023-04-17T06:20:28.271Z,100.00
2023-04-17T06:22:54.729Z,100.00
2023-04-17T06:25:21.109Z,100.00
2023-04-17T06:27:47.542Z,100.00
2023-04-17T06:30:13.941Z,100.00
2023-04-17T06:32:43.777Z,100.00
2023-04-17T06:35:10.565Z,100.00
2023-04-17T06:37:37.092Z,100.00
2023-04-17T06:40:04.070Z,100.00
2023-04-17T06:42:30.568Z,100.00
2023-04-17T06:44:56.944Z,100.00
2023-04-17T06:47:23.455Z,100.00
2023-04-17T06:49:49.906Z,100.00
2023-04-17T06:52:17.821Z,100.00
2023-04-17T06:54:44.250Z,100.00
2023-04-17T06:57:11.291Z,100.00
2023-04-17T06:59:38.358Z,100.00
2023-04-17T07:02:04.785Z,100.00
2023-04-17T07:04:31.793Z,100.00
2023-04-17T07:06:58.341Z,100.00
2023-04-17T07:09:25.836Z,100.00
2023-04-17T07:11:52.385Z,100.00
2023-04-17T07:14:21.100Z,100.00
2023-04-17T07:16:47.550Z,100.00
2023-04-17T07:19:19.792Z,100.00
2023-04-17T07:21:46.378Z,100.00
2023-04-17T07:24:12.755Z,100.00
2023-04-17T07:26:40.471Z,100.00
2023-04-17T07:29:06.897Z,100.00
2023-04-17T07:31:33.373Z,100.00
2023-04-17T07:34:00.630Z,100.00
2023-04-17T07:36:29.958Z,100.00
2023-04-17T07:39:02.063Z,100.00
2023-04-17T07:41:28.487Z,100.00
2023-04-17T07:43:58.461Z,100.00
2023-04-17T07:46:25.539Z,100.00
2023-04-17T07:48:52.935Z,100.00
2023-04-17T07:51:19.312Z,100.00
2023-04-17T07:53:47.799Z,100.00
2023-04-17T07:56:14.220Z,100.00
2023-04-17T07:58:40.637Z,100.00
2023-04-17T08:01:07.097Z,100.00
2023-04-17T08:03:33.732Z,100.00
2023-04-17T08:06:00.389Z,100.00
2023-04-17T08:08:26.927Z,100.00
2023-04-17T08:10:54.339Z,100.00
2023-04-17T08:13:20.713Z,100.00
2023-04-17T08:15:47.302Z,100.00
2023-04-17T08:18:13.959Z,100.00
2023-04-17T08:20:40.338Z,100.00
2023-04-17T08:23:07.239Z,100.00
2023-04-17T08:25:33.745Z,100.00
2023-04-17T08:28:00.217Z,100.00
2023-04-17T08:30:28.773Z,100.00
2023-04-17T08:32:57.451Z,100.00
2023-04-17T08:35:30.084Z,100.00
2023-04-17T08:37:58.860Z,100.00
2023-04-17T08:40:26.322Z,100.00
2023-04-17T08:42:53.415Z,100.00
2023-04-17T08:45:20.977Z,100.00
2023-04-17T08:47:49.509Z,100.00
2023-04-17T08:50:17.058Z,100.00
2023-04-17T08:52:44.797Z,100.00
2023-04-17T08:55:13.890Z,100.00
2023-04-17T08:57:59.158Z,100.00
2023-04-17T09:00:29.120Z,100.00
2023-04-17T09:02:56.483Z,100.00
2023-04-17T09:05:30.300Z,100.00
2023-04-17T09:08:10.081Z,100.00
2023-04-17T09:10:40.845Z,100.00
2023-04-17T09:13:08.503Z,100.00
2023-04-17T09:15:44.811Z,97.88
2023-04-17T09:18:33.658Z,95.14
2023-04-17T09:21:00.830Z,97.93
2023-04-17T09:23:28.690Z,94.63
2023-04-17T09:26:11.965Z,93.89
2023-04-17T09:28:41.507Z,93.91
2023-04-17T09:31:21.948Z,98.10
2023-04-17T09:33:58.116Z,98.32
2023-04-17T09:36:39.270Z,93.70
2023-04-17T09:39:16.553Z,89.65
2023-04-17T09:41:50.038Z,84.58
2023-04-17T09:44:25.700Z,88.83
2023-04-17T09:46:53.161Z,86.78
2023-04-17T09:49:20.688Z,86.38
2023-04-17T09:51:47.108Z,86.46
2023-04-17T09:54:14.996Z,79.15
2023-04-17T09:56:42.040Z,82.92
2023-04-17T09:59:08.671Z,80.08
2023-04-17T10:01:40.848Z,73.67
2023-04-17T10:04:07.756Z,75.84
2023-04-17T10:06:34.664Z,75.10
2023-04-17T10:09:04.249Z,76.66
2023-04-17T10:11:34.087Z,71.84
2023-04-17T10:14:12.106Z,71.40
2023-04-17T10:16:39.676Z,72.73
2023-04-17T10:19:24.483Z,70.80
2023-04-17T10:22:10.062Z,72.93
2023-04-17T10:24:36.451Z,68.61
2023-04-17T10:27:22.862Z,69.66
2023-04-17T10:29:59.783Z,69.93
2023-04-17T10:32:29.650Z,72.23
2023-04-17T10:34:57.400Z,73.19
2023-04-17T10:37:44.554Z,73.17
2023-04-17T10:40:11.955Z,69.57
2023-04-17T10:42:39.374Z,69.42
2023-04-17T10:45:18.712Z,66.80
2023-04-17T10:47:58.041Z,66.54
2023-04-17T10:50:27.871Z,65.76
2023-04-17T10:52:54.284Z,66.63
2023-04-17T10:55:22.114Z,64.91
2023-04-17T10:57:57.929Z,65.45
2023-04-17T11:00:38.426Z,67.58
2023-04-17T11:03:08.025Z,66.37
2023-04-17T11:05:35.847Z,65.23
2023-04-17T11:08:02.478Z,63.38
2023-04-17T11:10:28.901Z,65.70
2023-04-17T11:12:59.379Z,63.74
2023-04-17T11:15:34.017Z,66.14
2023-04-17T11:18:02.290Z,64.42
2023-04-17T11:20:31.823Z,64.41
2023-04-17T11:23:02.249Z,61.15
2023-04-17T11:25:33.845Z,62.72
2023-04-17T11:28:02.059Z,62.32
2023-04-17T11:30:29.860Z,62.71
2023-04-17T11:33:06.519Z,61.31
2023-04-17T11:35:35.605Z,61.70
2023-04-17T11:38:08.400Z,63.89
2023-04-17T11:40:34.842Z,62.10
2023-04-17T11:43:10.393Z,59.38
2023-04-17T11:45:37.372Z,60.92
2023-04-17T11:48:03.973Z,60.14
2023-04-17T11:50:38.883Z,59.98
2023-04-17T11:53:06.084Z,60.56
2023-04-17T11:55:34.526Z,61.65
2023-04-17T11:58:02.060Z,64.59
2023-04-17T12:00:31.768Z,60.82
2023-04-17T12:02:59.442Z,60.94
2023-04-17T12:05:26.981Z,61.33
2023-04-17T12:08:00.309Z,60.83
2023-04-17T12:10:57.440Z,60.83
2023-04-17T12:13:26.237Z,60.33
2023-04-17T12:15:58.630Z,60.14
2023-04-17T12:18:28.104Z,59.32
2023-04-17T12:20:54.531Z,60.21
2023-04-17T12:23:22.928Z,60.63
2023-04-17T12:25:50.063Z,58.68
2023-04-17T12:28:17.032Z,58.72
2023-04-17T12:30:44.741Z,58.42
2023-04-17T12:33:12.202Z,58.99
2023-04-17T12:35:38.765Z,57.64
2023-04-17T12:38:05.135Z,57.14
2023-04-17T12:40:35.523Z,58.01
2023-04-17T12:43:01.981Z,59.75
2023-04-17T12:45:28.408Z,57.46
2023-04-17T12:47:55.112Z,58.83
2023-04-17T12:50:22.655Z,58.54
2023-04-17T12:53:07.087Z,57.22
2023-04-17T12:55:33.555Z,58.85
2023-04-17T12:57:59.967Z,60.13
2023-04-17T13:00:26.551Z,61.05
2023-04-17T13:03:01.431Z,63.20
2023-04-17T13:05:28.438Z,68.27
2023-04-17T13:07:55.567Z,73.05
2023-04-17T13:10:22.029Z,76.48
2023-04-17T13:12:48.623Z,77.77
2023-04-17T13:15:15.531Z,79.65
2023-04-17T13:17:44.314Z,79.87
2023-04-17T13:20:11.265Z,81.27
2023-04-17T13:22:37.740Z,83.79
2023-04-17T13:25:04.433Z,84.18
2023-04-17T13:27:31.449Z,87.66
2023-04-17T13:29:58.860Z,91.12
2023-04-17T13:32:25.302Z,92.69
2023-04-17T13:34:51.888Z,92.78
2023-04-17T13:37:18.342Z,96.30
2023-04-17T13:39:44.795Z,97.24
2023-04-17T13:42:13.022Z,97.14
2023-04-17T13:44:39.538Z,100.00
2023-04-17T13:47:08.309Z,100.00
2023-04-17T13:49:34.747Z,96.66
2023-04-17T13:52:01.238Z,97.88
2023-04-17T13:54:27.725Z,99.57
2023-04-17T13:56:54.151Z,100.00
2023-04-17T13:59:20.818Z,100.00
2023-04-17T14:01:47.271Z,100.00
2023-04-17T14:04:14.288Z,100.00
2023-04-17T14:06:41.474Z,100.00
2023-04-17T14:09:08.157Z,100.00
2023-04-17T14:11:34.591Z,100.00
2023-04-17T14:14:00.999Z,100.00
2023-04-17T14:16:27.719Z,100.00
2023-04-17T14:18:54.364Z,100.00
2023-04-17T14:21:21.994Z,100.00
2023-04-17T14:23:50.746Z,100.00
2023-04-17T14:26:22.982Z,100.00
2023-04-17T14:28:49.398Z,100.00
2023-04-17T14:31:15.829Z,97.43
2023-04-17T14:33:42.301Z,96.01
2023-04-17T14:36:09.020Z,100.00
2023-04-17T14:38:35.494Z,100.00
2023-04-17T14:41:01.973Z,100.00
2023-04-17T14:43:28.442Z,91.72
2023-04-17T14:45:55.389Z,91.35
2023-04-17T14:48:23.655Z,96.41
2023-04-17T14:50:50.415Z,98.71
2023-04-17T14:53:18.839Z,100.00
2023-04-17T14:55:46.518Z,100.00
2023-04-17T14:58:13.034Z,100.00
2023-04-17T15:00:39.989Z,100.00
2023-04-17T15:03:08.834Z,100.00
2023-04-17T15:05:36.454Z,100.00
2023-04-17T15:08:02.870Z,100.00
2023-04-17T15:10:50.822Z,100.00
2023-04-17T15:13:18.049Z,100.00
2023-04-17T15:15:45.837Z,100.00
2023-04-17T15:18:18.518Z,100.00
2023-04-17T15:20:44.980Z,96.34
2023-04-17T15:23:12.415Z,100.00
2023-04-17T15:25:39.037Z,100.00
2023-04-17T15:28:06.392Z,95.50
2023-04-17T15:30:32.866Z,97.82
2023-04-17T15:33:04.438Z,100.00
2023-04-17T15:35:31.925Z,95.45
2023-04-17T15:38:01.605Z,100.00
2023-04-17T15:40:28.078Z,95.13
2023-04-17T15:42:54.606Z,94.33
2023-04-17T15:45:21.097Z,98.75
2023-04-17T15:47:47.634Z,100.00
2023-04-17T15:50:14.450Z,100.00
2023-04-17T15:52:40.861Z,100.00
2023-04-17T15:55:07.378Z,100.00
2023-04-17T15:57:38.115Z,100.00
2023-04-17T16:00:06.777Z,100.00
2023-04-17T16:02:33.354Z,100.00
2023-04-17T16:04:59.801Z,100.00
2023-04-17T16:07:26.294Z,100.00
2023-04-17T16:09:52.743Z,100.00
2023-04-17T16:12:20.257Z,97.54
2023-04-17T16:14:49.472Z,91.84
2023-04-17T16:17:18.144Z,91.96
2023-04-17T16:19:46.776Z,92.41
2023-04-17T16:22:14.085Z,92.11
2023-04-17T16:24:40.486Z,87.03
2023-04-17T16:27:06.873Z,90.24
2023-04-17T16:29:33.339Z,94.49
2023-04-17T16:32:00.098Z,86.93
2023-04-17T16:34:33.691Z,89.21
2023-04-17T16:37:00.217Z,90.17
2023-04-17T16:39:29.658Z,85.08
2023-04-17T16:41:56.263Z,86.90
2023-04-17T16:44:22.670Z,87.70
2023-04-17T16:47:09.405Z,87.48
2023-04-17T16:49:36.793Z,88.48
2023-04-17T16:52:03.175Z,91.73
2023-04-17T16:54:29.580Z,90.51
2023-04-17T16:56:56.003Z,91.07
2023-04-17T16:59:24.409Z,89.34
2023-04-17T17:01:50.831Z,91.64
2023-04-17T17:04:17.270Z,92.48
2023-04-17T17:06:48.694Z,90.08
2023-04-17T17:09:17.385Z,93.45
2023-04-17T17:11:44.766Z,92.69
2023-04-17T17:14:12.493Z,95.44
2023-04-17T17:16:41.001Z,93.03
2023-04-17T17:19:07.624Z,96.16
2023-04-17T17:21:34.006Z,96.42
2023-04-17T17:24:06.677Z,92.53
2023-04-17T17:26:39.098Z,97.77
2023-04-17T17:29:05.535Z,99.35
2023-04-17T17:31:32.857Z,96.81
2023-04-17T17:34:25.499Z,96.82
2023-04-17T17:36:54.302Z,96.02
2023-04-17T17:39:22.443Z,95.85
2023-04-17T17:41:50.023Z,98.09
2023-04-17T17:44:16.480Z,97.16
2023-04-17T17:46:42.894Z,96.73
2023-04-17T17:49:09.433Z,97.39
2023-04-17T17:51:35.797Z,98.38
2023-04-17T17:54:02.245Z,98.51
2023-04-17T17:56:28.923Z,99.17
2023-04-17T17:58:55.542Z,98.07
2023-04-17T18:01:24.621Z,98.84
2023-04-17T18:03:51.537Z,100.00
2023-04-17T18:06:22.260Z,100.00
2023-04-17T18:08:52.743Z,100.00
2023-04-17T18:11:19.108Z,100.00
2023-04-17T18:13:45.516Z,100.00
2023-04-17T18:16:12.961Z,100.00
2023-04-17T18:18:41.830Z,100.00
2023-04-17T18:21:08.873Z,100.00
2023-04-17T18:23:35.317Z,100.00
2023-04-17T18:26:02.730Z,100.00
2023-04-17T18:28:32.740Z,100.00
2023-04-17T18:30:59.167Z,100.00
2023-04-17T18:33:25.600Z,100.00
2023-04-17T18:35:52.029Z,100.00
2023-04-17T18:38:18.435Z,100.00
2023-04-17T18:40:52.988Z,100.00
2023-04-17T18:43:27.253Z,100.00
2023-04-17T18:45:53.834Z,100.00
2023-04-17T18:48:20.959Z,100.00
2023-04-17T18:50:47.581Z,100.00
2023-04-17T18:53:13.990Z,100.00
2023-04-17T18:55:41.383Z,100.00
2023-04-17T18:58:07.757Z,100.00
2023-04-17T19:00:37.599Z,100.00
2023-04-17T19:03:05.104Z,100.00
2023-04-17T19:05:33.602Z,100.00
2023-04-17T19:08:02.092Z,100.00
2023-04-17T19:10:29.961Z,100.00
2023-04-17T19:12:56.377Z,100.00
2023-04-17T19:15:23.299Z,100.00
2023-04-17T19:17:49.806Z,100.00
2023-04-17T19:20:16.864Z,100.00
2023-04-17T19:22:43.374Z,100.00
2023-04-17T19:25:16.633Z,100.00
2023-04-17T19:27:45.123Z,100.00
2023-04-17T19:30:11.757Z,100.00
2023-04-17T19:32:38.359Z,100.00
2023-04-17T19:35:06.158Z,100.00
2023-04-17T19:37:33.347Z,100.00
2023-04-17T19:40:01.305Z,100.00
2023-04-17T19:42:30.834Z,100.00
2023-04-17T19:44:57.397Z,100.00
2023-04-17T19:47:26.101Z,100.00
2023-04-17T19:50:04.864Z,100.00
2023-04-17T19:52:31.611Z,100.00
2023-04-17T19:54:58.215Z,100.00
2023-04-17T19:57:24.839Z,100.00
2023-04-17T19:59:51.701Z,100.00
2023-04-17T20:02:21.797Z,100.00
2023-04-17T20:04:48.458Z,100.00
2023-04-17T20:07:14.945Z,100.00
2023-04-17T20:09:41.366Z,100.00
2023-04-17T20:12:10.036Z,100.00
2023-04-17T20:14:36.482Z,100.00
2023-04-17T20:17:02.862Z,100.00
2023-04-17T20:19:33.536Z,100.00
2023-04-17T20:21:59.950Z,100.00
2023-04-17T20:24:31.539Z,100.00
2023-04-17T20:26:59.066Z,100.00
2023-04-17T20:29:27.100Z,100.00
2023-04-17T20:31:53.742Z,100.00
2023-04-17T20:34:20.434Z,100.00
2023-04-17T20:36:46.809Z,100.00
2023-04-17T20:39:48.439Z,100.00
2023-04-17T20:42:14.855Z,100.00
2023-04-17T20:44:41.416Z,100.00
2023-04-17T20:47:07.824Z,100.00
2023-04-17T20:49:34.309Z,100.00
2023-04-17T20:52:03.154Z,100.00
2023-04-17T20:54:29.629Z,100.00
2023-04-17T20:56:57.138Z,100.00
2023-04-17T20:59:23.528Z,100.00
2023-04-17T21:01:52.338Z,100.00
2023-04-17T21:04:19.188Z,100.00
2023-04-17T21:06:45.630Z,100.00
2023-04-17T21:09:14.230Z,100.00
2023-04-17T21:11:41.770Z,100.00
2023-04-17T21:14:10.302Z,100.00
2023-04-17T21:16:45.434Z,100.00
2023-04-17T21:19:11.993Z,100.00
2023-04-17T21:21:38.467Z,100.00
2023-04-17T21:24:04.992Z,100.00
2023-04-17T21:26:31.429Z,100.00
2023-04-17T21:28:57.789Z,100.00
2023-04-17T21:31:24.225Z,100.00
2023-04-17T21:33:52.870Z,100.00
2023-04-17T21:36:22.413Z,100.00
2023-04-17T21:38:48.921Z,100.00
2023-04-17T21:41:15.319Z,100.00
2023-04-17T21:43:41.713Z,100.00
2023-04-17T21:46:11.496Z,100.00
2023-04-17T21:48:39.776Z,100.00
2023-04-17T21:51:06.274Z,100.00
2023-04-17T21:53:39.858Z,100.00
2023-04-17T21:56:07.112Z,100.00
2023-04-17T21:58:35.773Z,100.00
2023-04-17T22:01:02.526Z,100.00
2023-04-17T22:03:33.928Z,100.00
2023-04-17T22:06:00.361Z,100.00
2023-04-17T22:08:26.788Z,100.00
2023-04-17T22:10:53.162Z,100.00
2023-04-17T22:13:19.548Z,100.00
2023-04-17T22:15:47.549Z,100.00
2023-04-17T22:18:13.995Z,100.00
2023-04-17T22:20:40.466Z,100.00
2023-04-17T22:23:07.321Z,100.00
2023-04-17T22:25:37.831Z,100.00
2023-04-17T22:28:04.639Z,100.00
2023-04-17T22:30:31.096Z,100.00
2023-04-17T22:32:57.571Z,100.00
2023-04-17T22:35:24.375Z,100.00
2023-04-17T22:37:50.793Z,100.00
2023-04-17T22:40:17.304Z,100.00
2023-04-17T22:42:43.739Z,100.00
2023-04-17T22:45:10.254Z,100.00
2023-04-17T22:47:36.661Z,100.00
2023-04-17T22:50:03.485Z,100.00
2023-04-17T22:52:29.929Z,100.00
2023-04-17T22:54:58.429Z,100.00
2023-04-17T22:57:24.826Z,100.00
2023-04-17T22:59:52.245Z,100.00
2023-04-17T23:02:18.636Z,100.00
2023-04-17T23:04:45.117Z,100.00
2023-04-17T23:07:11.510Z,100.00
2023-04-17T23:09:39.117Z,100.00
2023-04-17T23:12:07.115Z,100.00
2023-04-17T23:14:33.525Z,100.00
2023-04-17T23:16:59.894Z,100.00
2023-04-17T23:19:26.335Z,100.00
2023-04-17T23:21:52.783Z,100.00
2023-04-17T23:24:19.148Z,100.00
2023-04-17T23:26:46.742Z,100.00
2023-04-17T23:29:13.534Z,100.00
2023-04-17T23:31:39.898Z,100.00
2023-04-17T23:34:06.689Z,100.00
2023-04-17T23:36:33.058Z,100.00
2023-04-17T23:38:59.444Z,100.00
2023-04-17T23:41:26.731Z,100.00
2023-04-17T23:43:56.136Z,100.00
2023-04-17T23:46:22.696Z,100.00
2023-04-17T23:48:49.647Z,100.00
2023-04-17T23:51:16.108Z,100.00
2023-04-17T23:53:42.510Z,100.00
2023-04-17T23:56:14.817Z,100.00
2023-04-17T23:58:41.180Z,100.00
